createdAt,value
2019-03-24T00:01:40.684Z,102663.43
2019-03-24T00:03:59.709Z,102666.69
2019-03-24T00:06:25.500Z,102668.14
2019-03-24T00:08:51.286Z,102666.55
2019-03-24T00:11:17.124Z,102668.48
2019-03-24T00:13:42.897Z,102664.63
2019-03-24T00:16:08.703Z,102666.55
2019-03-24T00:18:34.505Z,102658.20
2019-03-24T00:21:00.312Z,102665.27
2019-03-24T00:23:26.106Z,102662.30
2019-03-24T00:25:52.097Z,102664.80
2019-03-24T00:28:17.929Z,102670.06
2019-03-24T00:30:44.502Z,102664.55
2019-03-24T00:33:10.316Z,102672.16
2019-03-24T00:35:37.324Z,102666.48
2019-03-24T00:38:03.756Z,102666.48
2019-03-24T00:40:29.574Z,102661.88
2019-03-24T00:42:55.544Z,102661.58
2019-03-24T00:45:21.344Z,102654.90
2019-03-24T00:47:49.558Z,102640.45
2019-03-24T00:50:15.578Z,102640.70
2019-03-24T00:52:44.548Z,102643.70
2019-03-24T00:55:11.111Z,102645.04
2019-03-24T00:57:38.829Z,102643.70
2019-03-24T01:00:05.711Z,102639.36
2019-03-24T01:02:31.538Z,102640.11
2019-03-24T01:04:57.315Z,102636.02
2019-03-24T01:07:23.111Z,102630.34
2019-03-24T01:09:48.893Z,102631.30
2019-03-24T01:12:14.685Z,102631.67
2019-03-24T01:14:40.696Z,102631.38
2019-03-24T01:17:06.490Z,102642.58
2019-03-24T01:19:32.280Z,102636.69
2019-03-24T01:21:58.090Z,102642.78
2019-03-24T01:24:23.870Z,102636.86
2019-03-24T01:26:49.651Z,102628.84
2019-03-24T01:29:15.445Z,102639.28
2019-03-24T01:31:41.229Z,102635.02
2019-03-24T01:34:07.024Z,102636.10
2019-03-24T01:36:32.803Z,102631.72
2019-03-24T01:38:58.606Z,102635.34
2019-03-24T01:41:24.384Z,102629.17
2019-03-24T01:43:50.193Z,102633.55
2019-03-24T01:46:15.978Z,102628.54
2019-03-24T01:48:41.779Z,102623.16
2019-03-24T01:51:07.559Z,102625.91
2019-03-24T01:53:33.357Z,102619.31
2019-03-24T01:55:59.141Z,102616.84
2019-03-24T01:58:24.940Z,102619.40
2019-03-24T02:00:50.715Z,102618.44
2019-03-24T02:03:16.526Z,102619.14
2019-03-24T02:05:42.310Z,102619.14
2019-03-24T02:08:08.121Z,102615.05
2019-03-24T02:10:33.904Z,102607.41
2019-03-24T02:12:59.813Z,102611.12
2019-03-24T02:15:25.612Z,102614.50
2019-03-24T02:17:51.396Z,102622.44
2019-03-24T02:20:17.192Z,102620.14
2019-03-24T02:22:42.988Z,102624.41
2019-03-24T02:25:08.794Z,102621.31
2019-03-24T02:27:34.569Z,102615.47
2019-03-24T02:30:00.484Z,102614.88
2019-03-24T02:32:26.367Z,102610.73
2019-03-24T02:34:52.166Z,102616.55
2019-03-24T02:37:17.948Z,102619.47
2019-03-24T02:39:43.744Z,102620.72
2019-03-24T02:42:09.519Z,102615.05
2019-03-24T02:44:35.329Z,102616.01
2019-03-24T02:47:01.114Z,102622.19
2019-03-24T02:49:26.915Z,102615.80
2019-03-24T02:51:52.695Z,102623.06
2019-03-24T02:54:18.509Z,102613.08
2019-03-24T02:56:44.284Z,102613.08
2019-03-24T02:59:10.073Z,102612.21
2019-03-24T03:01:35.868Z,102607.45
2019-03-24T03:04:01.647Z,102597.89
2019-03-24T03:06:27.461Z,102588.48
2019-03-24T03:08:53.246Z,102588.48
2019-03-24T03:11:19.054Z,102586.69
2019-03-24T03:13:44.824Z,102579.47
2019-03-24T03:16:10.634Z,102584.27
2019-03-24T03:18:36.410Z,102584.27
2019-03-24T03:21:02.324Z,102581.43
2019-03-24T03:23:28.121Z,102584.59
2019-03-24T03:25:53.915Z,102584.97
2019-03-24T03:28:19.700Z,102572.91
2019-03-24T03:30:45.495Z,102573.25
2019-03-24T03:33:11.290Z,102570.11
2019-03-24T03:35:37.096Z,102566.78
2019-03-24T03:38:02.860Z,102568.07
2019-03-24T03:40:28.660Z,102566.98
2019-03-24T03:42:54.440Z,102571.49
2019-03-24T03:45:25.454Z,102569.11
2019-03-24T03:47:51.241Z,102561.05
2019-03-24T03:50:17.051Z,102564.23
2019-03-24T03:52:42.837Z,102566.06
2019-03-24T03:55:08.923Z,102560.72
2019-03-24T03:57:34.735Z,102548.20
2019-03-24T04:00:00.549Z,102553.33
2019-03-24T04:02:26.299Z,102546.91
2019-03-24T04:04:52.077Z,102550.91
2019-03-24T04:07:17.873Z,102544.14
2019-03-24T04:09:43.654Z,102549.48
2019-03-24T04:12:09.449Z,102545.52
2019-03-24T04:14:35.237Z,102541.77
2019-03-24T04:17:07.737Z,102538.84
2019-03-24T04:19:28.713Z,102542.11
2019-03-24T04:21:54.526Z,102547.90
2019-03-24T04:24:20.306Z,102548.23
2019-03-24T04:26:47.701Z,102546.69
2019-03-24T04:29:13.479Z,102552.70
2019-03-24T04:31:39.296Z,102550.03
2019-03-24T04:34:05.052Z,102543.30
2019-03-24T04:36:30.862Z,102550.78
2019-03-24T04:38:56.628Z,102550.78
2019-03-24T04:41:22.440Z,102556.24
2019-03-24T04:43:48.258Z,102556.75
2019-03-24T04:46:14.037Z,102558.84
2019-03-24T04:48:39.848Z,102550.98
2019-03-24T04:51:05.637Z,102550.98
2019-03-24T04:53:31.443Z,102539.09
2019-03-24T04:55:57.230Z,102539.09
2019-03-24T04:58:23.035Z,102551.28
2019-03-24T05:00:48.811Z,102557.72
2019-03-24T05:03:14.625Z,102546.40
2019-03-24T05:05:40.806Z,102546.40
2019-03-24T05:08:08.906Z,102543.39
2019-03-24T05:10:34.688Z,102540.14
2019-03-24T05:13:00.489Z,102537.97
2019-03-24T05:15:26.272Z,102531.87
2019-03-24T05:17:52.171Z,102536.59
2019-03-24T05:20:17.958Z,102533.05
2019-03-24T05:22:45.974Z,102526.73
2019-03-24T05:25:11.901Z,102531.95
2019-03-24T05:27:37.697Z,102524.81
2019-03-24T05:30:05.176Z,102526.81
2019-03-24T05:32:30.982Z,102527.19
2019-03-24T05:34:56.767Z,102532.29
2019-03-24T05:37:22.550Z,102524.06
2019-03-24T05:39:48.340Z,102531.13
2019-03-24T05:42:14.121Z,102534.92
2019-03-24T05:44:39.908Z,102544.31
2019-03-24T05:47:05.701Z,102538.84
2019-03-24T05:49:31.479Z,102532.70
2019-03-24T05:51:57.260Z,102508.78
2019-03-24T05:54:23.057Z,102509.70
2019-03-24T05:56:48.843Z,102515.92
2019-03-24T05:59:14.636Z,102507.02
2019-03-24T06:01:40.420Z,102501.33
2019-03-24T06:04:06.216Z,102498.07
2019-03-24T06:06:31.999Z,102494.16
2019-03-24T06:08:57.792Z,102501.67
2019-03-24T06:11:23.582Z,102499.78
2019-03-24T06:13:49.398Z,102496.14
2019-03-24T06:16:15.181Z,102510.51
2019-03-24T06:18:40.955Z,102505.69
2019-03-24T06:21:06.769Z,102504.08
2019-03-24T06:23:32.547Z,102505.56
2019-03-24T06:25:58.354Z,102495.00
2019-03-24T06:28:24.141Z,102498.07
2019-03-24T06:30:49.943Z,102498.22
2019-03-24T06:33:15.720Z,102494.76
2019-03-24T06:35:41.529Z,102492.45
2019-03-24T06:38:07.317Z,102485.97
2019-03-24T06:40:33.110Z,102494.70
2019-03-24T06:42:58.895Z,102488.61
2019-03-24T06:45:28.682Z,102490.48
2019-03-24T06:47:58.013Z,102497.58
2019-03-24T06:50:20.081Z,102497.72
2019-03-24T06:52:45.862Z,102499.61
2019-03-24T06:55:11.764Z,102494.55
2019-03-24T06:57:37.547Z,102487.00
2019-03-24T07:00:05.534Z,102481.80
2019-03-24T07:02:31.340Z,102479.83
2019-03-24T07:04:57.935Z,102471.76
2019-03-24T07:07:23.728Z,102471.92
2019-03-24T07:09:49.510Z,102469.26
2019-03-24T07:12:15.312Z,102464.63
2019-03-24T07:14:41.097Z,102476.44
2019-03-24T07:17:06.888Z,102468.44
2019-03-24T07:19:32.677Z,102467.23
2019-03-24T07:21:58.480Z,102469.78
2019-03-24T07:24:24.264Z,102478.56
2019-03-24T07:26:50.065Z,102471.48
2019-03-24T07:29:15.852Z,102465.17
2019-03-24T07:31:41.660Z,102446.38
2019-03-24T07:34:07.443Z,102446.38
2019-03-24T07:36:33.243Z,102458.16
2019-03-24T07:38:59.021Z,102443.47
2019-03-24T07:41:24.813Z,102438.80
2019-03-24T07:43:50.597Z,102441.17
2019-03-24T07:46:16.391Z,102437.05
2019-03-24T07:48:42.172Z,102447.13
2019-03-24T07:51:07.970Z,102454.34
2019-03-24T07:53:33.787Z,102452.18
2019-03-24T07:55:59.542Z,102449.75
2019-03-24T07:58:25.322Z,102453.81
2019-03-24T08:00:51.105Z,102457.34
2019-03-24T08:03:16.921Z,102454.80
2019-03-24T08:05:42.705Z,102452.39
2019-03-24T08:08:08.508Z,102448.37
2019-03-24T08:10:34.285Z,102442.20
2019-03-24T08:13:00.149Z,102442.85
2019-03-24T08:15:25.930Z,102442.67
2019-03-24T08:17:51.730Z,102441.98
2019-03-24T08:20:17.524Z,102440.32
2019-03-24T08:22:43.330Z,102437.38
2019-03-24T08:25:11.114Z,102431.53
2019-03-24T08:27:36.911Z,102430.15
2019-03-24T08:30:04.796Z,102423.39
2019-03-24T08:32:30.594Z,102428.45
2019-03-24T08:34:56.375Z,102422.81
2019-03-24T08:37:22.169Z,102420.17
2019-03-24T08:39:47.973Z,102402.58
2019-03-24T08:42:13.797Z,102402.58
2019-03-24T08:44:39.577Z,102410.55
2019-03-24T08:47:05.359Z,102403.30
2019-03-24T08:49:31.156Z,102399.70
2019-03-24T08:51:56.943Z,102401.97
2019-03-24T08:54:22.737Z,102396.39
2019-03-24T08:56:48.517Z,102395.87
2019-03-24T08:59:14.313Z,102380.53
2019-03-24T09:01:40.102Z,102383.32
2019-03-24T09:04:05.912Z,102388.43
2019-03-24T09:06:31.705Z,102380.27
2019-03-24T09:08:57.520Z,102378.95
2019-03-24T09:13:50.909Z,102383.73
2019-03-24T09:16:16.693Z,102382.83
2019-03-24T09:18:52.055Z,102383.05
2019-03-24T09:21:10.217Z,102379.07
2019-03-24T09:23:36.092Z,102375.84
2019-03-24T09:26:01.936Z,102380.12
2019-03-24T09:28:27.728Z,102383.64
2019-03-24T09:30:53.529Z,102376.86
2019-03-24T09:33:19.329Z,102378.42
2019-03-24T09:35:45.141Z,102376.23
2019-03-24T09:38:10.910Z,102370.83
2019-03-24T09:40:36.721Z,102365.78
2019-03-24T09:43:03.466Z,102359.91
2019-03-24T09:45:30.050Z,102351.41
2019-03-24T09:47:55.847Z,102346.16
2019-03-24T09:50:21.636Z,102340.09
2019-03-24T09:52:47.750Z,102328.70
2019-03-24T09:55:13.535Z,102334.34
2019-03-24T09:57:39.327Z,102321.84
2019-03-24T10:00:05.216Z,102317.80
2019-03-24T10:02:31.015Z,102304.92
2019-03-24T10:04:56.812Z,102304.92
2019-03-24T10:07:22.606Z,102247.43
2019-03-24T10:09:48.408Z,102289.83
2019-03-24T10:12:14.189Z,102288.90
2019-03-24T10:14:39.993Z,102285.71
2019-03-24T10:17:05.777Z,102287.17
2019-03-24T10:19:31.582Z,102288.82
2019-03-24T10:21:57.378Z,102288.36
2019-03-24T10:24:23.196Z,102287.59
2019-03-24T10:26:48.997Z,102286.50
2019-03-24T10:29:14.778Z,102294.73
2019-03-24T10:31:42.573Z,102294.73
2019-03-24T10:34:08.312Z,102290.67
2019-03-24T10:36:34.104Z,102286.98
2019-03-24T10:38:59.886Z,102289.42
2019-03-24T10:41:25.685Z,102289.36
2019-03-24T10:43:52.948Z,102279.09
2019-03-24T10:46:18.760Z,102266.58
2019-03-24T10:48:44.543Z,102266.58
2019-03-24T10:51:10.340Z,102262.83
2019-03-24T10:53:36.119Z,102261.61
2019-03-24T10:56:01.936Z,102272.48
2019-03-24T10:58:27.716Z,102274.84
2019-03-24T11:00:53.520Z,102273.04
2019-03-24T11:03:19.309Z,102271.77
2019-03-24T11:05:45.108Z,102272.12
2019-03-24T11:08:10.988Z,102264.33
2019-03-24T11:10:36.786Z,102264.39
2019-03-24T11:13:02.673Z,102262.48
2019-03-24T11:15:28.462Z,102248.08
2019-03-24T11:17:54.297Z,102240.40
2019-03-24T11:20:20.075Z,102240.39
2019-03-24T11:22:45.891Z,102232.84
2019-03-24T11:25:11.779Z,102231.21
2019-03-24T11:27:37.573Z,102223.33
2019-03-24T11:30:11.506Z,102216.14
2019-03-24T11:32:37.809Z,102210.23
2019-03-24T11:35:05.320Z,102210.23
2019-03-24T11:37:31.127Z,102214.76
2019-03-24T11:39:56.925Z,102219.96
2019-03-24T11:42:22.726Z,102212.81
2019-03-24T11:44:48.511Z,102206.53
2019-03-24T11:47:14.306Z,102194.12
2019-03-24T11:49:45.891Z,102186.10
2019-03-24T11:52:07.814Z,102186.27
2019-03-24T11:54:33.926Z,102184.97
2019-03-24T11:56:59.777Z,102185.32
2019-03-24T11:59:25.608Z,102186.66
2019-03-24T12:01:51.440Z,102183.31
2019-03-24T12:04:17.239Z,102178.91
2019-03-24T12:06:43.045Z,102173.77
2019-03-24T12:09:08.846Z,102173.69
2019-03-24T12:11:35.071Z,102172.13
2019-03-24T12:14:01.485Z,102164.83
2019-03-24T12:16:27.259Z,102156.84
2019-03-24T12:18:53.048Z,102155.83
2019-03-24T12:21:18.849Z,102151.42
2019-03-24T12:23:44.670Z,102135.47
2019-03-24T12:26:10.452Z,102135.17
2019-03-24T12:28:36.246Z,102127.26
2019-03-24T12:31:02.023Z,102117.73
2019-03-24T12:33:28.058Z,102120.39
2019-03-24T12:35:53.841Z,102109.28
2019-03-24T12:38:19.629Z,102113.56
2019-03-24T12:40:45.427Z,102107.56
2019-03-24T12:43:19.387Z,102105.38
2019-03-24T12:45:38.978Z,102106.28
2019-03-24T12:48:04.764Z,102092.85
2019-03-24T12:50:31.762Z,102100.50
2019-03-24T12:52:57.860Z,102094.27
2019-03-24T12:55:23.673Z,102094.27
2019-03-24T12:57:49.467Z,102099.02
2019-03-24T13:00:21.964Z,102090.96
2019-03-24T13:02:47.761Z,102084.11
2019-03-24T13:05:14.867Z,102084.11
2019-03-24T13:07:40.676Z,102068.81
2019-03-24T13:10:06.979Z,102068.81
2019-03-24T13:12:32.764Z,102077.83
2019-03-24T13:14:58.561Z,102071.04
2019-03-24T13:17:24.358Z,102065.86
2019-03-24T13:19:50.169Z,102065.86
2019-03-24T13:22:16.074Z,102067.37
2019-03-24T13:24:41.871Z,102068.96
2019-03-24T13:27:07.648Z,102065.13
2019-03-24T13:29:33.444Z,102063.68
2019-03-24T13:31:59.235Z,102056.59
2019-03-24T13:34:25.164Z,102047.06
2019-03-24T13:36:50.943Z,102045.36
2019-03-24T13:39:16.724Z,102036.59
2019-03-24T13:41:42.521Z,102041.02
2019-03-24T13:44:08.313Z,102024.77
2019-03-24T13:46:34.110Z,102036.56
2019-03-24T13:48:59.899Z,102026.94
2019-03-24T13:51:25.692Z,102024.95
2019-03-24T13:53:51.588Z,102027.34
2019-03-24T13:56:17.605Z,102019.75
2019-03-24T13:58:43.390Z,102023.30
2019-03-24T14:01:09.389Z,102016.15
2019-03-24T14:03:35.185Z,102002.95
2019-03-24T14:06:01.110Z,101999.37
2019-03-24T14:08:26.886Z,101995.06
2019-03-24T14:10:52.688Z,101993.16
2019-03-24T14:13:18.475Z,101997.02
2019-03-24T14:15:44.272Z,101997.37
2019-03-24T14:18:10.048Z,101987.30
2019-03-24T14:20:43.267Z,101987.56
2019-03-24T14:23:03.640Z,101967.71
2019-03-24T14:25:29.475Z,101967.71
2019-03-24T14:27:55.258Z,101972.59
2019-03-24T14:30:41.069Z,101963.98
2019-03-24T14:33:06.868Z,101962.32
2019-03-24T14:35:32.734Z,101964.67
2019-03-24T14:37:58.525Z,101962.36
2019-03-24T14:40:24.319Z,101971.47
2019-03-24T14:42:50.176Z,101953.75
2019-03-24T14:45:15.963Z,101948.59
2019-03-24T14:47:41.756Z,101953.79
2019-03-24T14:50:07.865Z,101945.53
2019-03-24T14:52:33.808Z,101945.53
2019-03-24T14:54:59.594Z,101936.17
2019-03-24T14:57:25.397Z,101936.17
2019-03-24T14:59:51.183Z,101935.13
2019-03-24T15:02:16.976Z,101931.36
2019-03-24T15:04:42.762Z,101937.27
2019-03-24T15:07:08.561Z,101936.89
2019-03-24T15:09:34.344Z,101926.80
2019-03-24T15:12:00.145Z,101925.84
2019-03-24T15:14:25.928Z,101918.20
2019-03-24T15:16:51.725Z,101911.13
2019-03-24T15:19:17.509Z,101911.12
2019-03-24T15:21:43.345Z,101902.70
2019-03-24T15:24:09.135Z,101909.42
2019-03-24T15:26:34.907Z,101904.70
2019-03-24T15:29:00.823Z,101908.95
2019-03-24T15:31:26.615Z,101904.39
2019-03-24T15:33:52.425Z,101902.63
2019-03-24T15:36:18.210Z,101887.92
2019-03-24T15:38:44.007Z,101891.37
2019-03-24T15:41:09.795Z,101882.05
2019-03-24T15:43:35.608Z,101884.73
2019-03-24T15:46:01.492Z,101876.34
2019-03-24T15:48:27.308Z,101867.75
2019-03-24T15:50:53.088Z,101867.96
2019-03-24T15:53:18.884Z,101865.23
2019-03-24T15:55:44.666Z,101863.73
2019-03-24T15:58:10.464Z,101864.22
2019-03-24T16:00:44.496Z,101849.06
2019-03-24T16:03:10.592Z,101858.61
2019-03-24T16:05:36.378Z,101852.53
2019-03-24T16:08:02.346Z,101862.41
2019-03-24T16:10:35.107Z,101858.83
2019-03-24T16:12:55.835Z,101864.08
2019-03-24T16:15:21.633Z,101857.06
2019-03-24T16:17:47.418Z,101849.86
2019-03-24T16:20:16.303Z,101845.39
2019-03-24T16:22:42.208Z,101845.25
2019-03-24T16:25:08.002Z,101841.00
2019-03-24T16:27:35.086Z,101828.98
2019-03-24T16:30:04.697Z,101826.16
2019-03-24T16:32:30.486Z,101825.70
2019-03-24T16:34:56.321Z,101826.98
2019-03-24T16:37:22.145Z,101818.92
2019-03-24T16:39:47.944Z,101821.28
2019-03-24T16:42:13.803Z,101811.85
2019-03-24T16:44:39.599Z,101813.73
2019-03-24T16:47:05.381Z,101813.42
2019-03-24T16:49:31.178Z,101811.39
2019-03-24T16:51:57.073Z,101813.72
2019-03-24T16:54:22.868Z,101814.09
2019-03-24T16:56:48.724Z,101806.78
2019-03-24T16:59:14.472Z,101804.66
2019-03-24T17:01:40.257Z,101802.57
2019-03-24T17:04:06.139Z,101803.55
2019-03-24T17:06:32.041Z,101798.46
2019-03-24T17:08:57.819Z,101796.84
2019-03-24T17:11:23.632Z,101798.23
2019-03-24T17:13:49.418Z,101795.20
2019-03-24T17:16:15.318Z,101798.17
2019-03-24T17:18:41.097Z,101793.13
2019-03-24T17:21:06.915Z,101792.08
2019-03-24T17:23:32.809Z,101787.63
2019-03-24T17:25:58.611Z,101791.31
2019-03-24T17:28:24.394Z,101790.03
2019-03-24T17:30:50.221Z,101787.92
2019-03-24T17:33:17.093Z,101791.25
2019-03-24T17:35:42.897Z,101788.72
2019-03-24T17:38:08.678Z,101785.18
2019-03-24T17:40:38.713Z,101784.88
2019-03-24T17:43:02.663Z,101786.58
2019-03-24T17:45:28.463Z,101781.50
2019-03-24T17:47:54.243Z,101776.22
2019-03-24T17:50:20.142Z,101776.66
2019-03-24T17:52:45.931Z,101773.13
2019-03-24T17:55:11.907Z,101781.68
2019-03-24T17:57:37.704Z,101775.16
2019-03-24T18:00:09.809Z,101770.23
2019-03-24T18:02:35.715Z,101772.08
2019-03-24T18:05:01.488Z,101764.20
2019-03-24T18:07:27.284Z,101763.70
2019-03-24T18:09:53.071Z,101754.16
2019-03-24T18:12:18.864Z,101758.58
2019-03-24T18:14:47.539Z,101762.95
2019-03-24T18:17:13.349Z,101752.90
2019-03-24T18:19:39.137Z,101751.16
2019-03-24T18:22:11.511Z,101745.92
2019-03-24T18:24:32.629Z,101737.60
2019-03-24T18:26:58.427Z,101731.62
2019-03-24T18:29:24.213Z,101732.67
2019-03-24T18:31:50.019Z,101721.13
2019-03-24T18:34:15.810Z,101721.13
2019-03-24T18:36:41.609Z,101722.85
2019-03-24T18:39:07.695Z,101721.39
2019-03-24T18:41:33.502Z,101719.12
2019-03-24T18:43:59.287Z,101711.42
2019-03-24T18:46:25.119Z,101701.91
2019-03-24T18:48:50.901Z,101703.61
2019-03-24T18:51:16.684Z,101705.16
2019-03-24T18:53:42.471Z,101696.99
2019-03-24T18:56:08.256Z,101691.63
2019-03-24T18:58:34.066Z,101688.24
2019-03-24T19:00:59.850Z,101688.24
2019-03-24T19:03:25.644Z,101689.42
2019-03-24T19:05:51.430Z,101694.59
2019-03-24T19:08:17.216Z,101676.92
2019-03-24T19:10:43.006Z,101681.30
2019-03-24T19:13:08.804Z,101669.58
2019-03-24T19:15:34.590Z,101666.42
2019-03-24T19:18:00.542Z,101664.16
2019-03-24T19:20:26.310Z,101661.19
2019-03-24T19:22:52.133Z,101658.70
2019-03-24T19:25:17.913Z,101654.00
2019-03-24T19:27:43.707Z,101655.12
2019-03-24T19:30:12.185Z,101648.22
2019-03-24T19:32:37.980Z,101643.94
2019-03-24T19:35:05.569Z,101641.67
2019-03-24T19:37:33.312Z,101629.91
2019-03-24T19:39:59.148Z,101626.94
2019-03-24T19:42:24.941Z,101623.74
2019-03-24T19:44:50.736Z,101624.38
2019-03-24T19:47:16.569Z,101616.84
2019-03-24T19:49:42.358Z,101606.06
2019-03-24T19:52:08.142Z,101600.50
2019-03-24T19:54:33.936Z,101595.78
2019-03-24T19:56:59.923Z,101591.77
2019-03-24T19:59:25.730Z,101591.60
2019-03-24T20:01:51.500Z,101595.27
2019-03-24T20:04:17.289Z,101585.73
2019-03-24T20:06:43.070Z,101578.64
2019-03-24T20:09:08.882Z,101583.14
2019-03-24T20:11:34.800Z,101572.58
2019-03-24T20:14:00.556Z,101567.48
2019-03-24T20:16:26.337Z,101564.45
2019-03-24T20:18:52.193Z,101561.61
2019-03-24T20:21:18.004Z,101554.43
2019-03-24T20:23:43.797Z,101544.89
2019-03-24T20:26:09.584Z,101540.01
2019-03-24T20:28:35.382Z,101536.69
2019-03-24T20:31:01.217Z,101538.16
2019-03-24T20:33:27.002Z,101550.86
2019-03-24T20:35:52.804Z,101527.39
2019-03-24T20:38:18.587Z,101527.39
2019-03-24T20:40:44.397Z,101513.34
2019-03-24T20:43:10.185Z,101516.69
2019-03-24T20:45:35.983Z,101513.72
2019-03-24T20:48:01.765Z,101508.17
2019-03-24T20:50:27.568Z,101508.51
2019-03-24T20:53:03.612Z,101504.21
2019-03-24T20:55:21.055Z,101489.60
2019-03-24T20:57:46.844Z,101484.85
2019-03-24T21:00:12.850Z,101489.77
2019-03-24T21:02:38.637Z,101483.01
2019-03-24T21:05:05.829Z,101479.53
2019-03-24T21:07:31.630Z,101480.62
2019-03-24T21:09:57.435Z,101473.61
2019-03-24T21:12:23.224Z,101471.09
2019-03-24T21:14:49.022Z,101467.16
2019-03-24T21:17:14.810Z,101460.37
2019-03-24T21:19:40.595Z,101451.92
2019-03-24T21:22:06.408Z,101455.55
2019-03-24T21:24:32.192Z,101449.69
2019-03-24T21:26:57.996Z,101440.95
2019-03-24T21:29:23.775Z,101436.11
2019-03-24T21:31:49.577Z,101426.83
2019-03-24T21:34:15.353Z,101415.06
2019-03-24T21:36:41.158Z,101410.58
2019-03-24T21:39:06.947Z,101408.09
2019-03-24T21:41:32.742Z,101404.30
2019-03-24T21:43:58.526Z,101402.67
2019-03-24T21:46:24.317Z,101396.33
2019-03-24T21:48:50.104Z,101394.19
2019-03-24T21:51:15.907Z,101377.78
2019-03-24T21:53:41.693Z,101378.70
2019-03-24T21:56:07.489Z,101373.34
2019-03-24T21:58:33.268Z,101368.70
2019-03-24T22:00:59.068Z,101366.50
2019-03-24T22:03:24.847Z,101344.00
2019-03-24T22:05:50.649Z,101342.13
2019-03-24T22:08:16.437Z,101337.31
2019-03-24T22:10:42.216Z,101336.58
2019-03-24T22:13:08.014Z,101328.48
2019-03-24T22:15:33.804Z,101327.12
2019-03-24T22:17:59.594Z,101321.10
2019-03-24T22:20:25.377Z,101302.34
2019-03-24T22:22:51.212Z,101300.65
2019-03-24T22:25:16.998Z,101296.58
2019-03-24T22:27:42.793Z,101293.83
2019-03-24T22:30:09.582Z,101292.46
2019-03-24T22:32:35.384Z,101283.80
2019-03-24T22:35:01.230Z,101275.36
2019-03-24T22:37:27.024Z,101266.98
2019-03-24T22:39:52.852Z,101264.31
2019-03-24T22:42:18.655Z,101257.37
2019-03-24T22:44:44.431Z,101247.88
2019-03-24T22:47:10.234Z,101230.38
2019-03-24T22:49:36.012Z,101229.39
2019-03-24T22:52:07.287Z,101211.28
2019-03-24T22:54:29.608Z,101211.28
2019-03-24T22:56:55.976Z,101204.75
2019-03-24T22:59:21.836Z,101201.16
2019-03-24T23:01:49.709Z,101186.31
2019-03-24T23:06:58.085Z,101168.81
2019-03-24T23:09:23.976Z,101167.77
2019-03-24T23:11:49.760Z,101170.14
2019-03-24T23:14:15.819Z,101161.81
2019-03-24T23:16:41.616Z,101155.59
2019-03-24T23:19:07.409Z,101153.22
2019-03-24T23:21:33.212Z,101146.05
2019-03-24T23:23:59.010Z,101129.52
2019-03-24T23:26:24.817Z,101130.00
2019-03-24T23:28:50.615Z,101124.70
2019-03-24T23:31:16.432Z,101111.95
2019-03-24T23:33:42.227Z,101109.80
2019-03-24T23:36:08.007Z,101093.39
2019-03-24T23:38:33.807Z,101089.89
2019-03-24T23:40:59.590Z,101079.44
2019-03-24T23:43:25.386Z,101075.13
2019-03-24T23:45:51.168Z,101073.13
2019-03-24T23:48:16.965Z,101062.22
2019-03-24T23:50:42.748Z,101060.63
2019-03-24T23:53:08.548Z,101054.05
2019-03-24T23:55:34.338Z,101038.00
2019-03-24T23:58:02.213Z,101033.34
